sensor_id;sensor_type;location;lat;lon;timestamp;pressure;altitude;pressure_sealevel;temperature;humidity
16461;BME280;8341;42.048;24.650;2023-01-23T00:02:17;97927.53;;;7.91;100.00
16461;BME280;8341;42.048;24.650;2023-01-23T00:04:44;97927.88;;;7.93;100.00
16461;BME280;8341;42.048;24.650;2023-01-23T00:07:12;97920.03;;;7.95;100.00
16461;BME280;8341;42.048;24.650;2023-01-23T00:09:39;97923.50;;;7.83;100.00
16461;BME280;8341;42.048;24.650;2023-01-23T00:12:06;97923.69;;;8.01;100.00
16461;BME280;8341;42.048;24.650;2023-01-23T00:14:33;97924.47;;;8.02;100.00
16461;BME280;8341;42.048;24.650;2023-01-23T00:17:00;97913.53;;;7.93;100.00
16461;BME280;8341;42.048;24.650;2023-01-23T00:19:27;97922.09;;;7.79;100.00
16461;BME280;8341;42.048;24.650;2023-01-23T00:21:53;97915.72;;;7.85;100.00
16461;BME280;8341;42.048;24.650;2023-01-23T00:24:21;97927.19;;;7.89;100.00
16461;BME280;8341;42.048;24.650;2023-01-23T00:26:48;97927.31;;;7.86;100.00
16461;BME280;8341;42.048;24.650;2023-01-23T00:29:15;97904.31;;;7.78;100.00
16461;BME280;8341;42.048;24.650;2023-01-23T00:31:42;97926.31;;;8.05;100.00
16461;BME280;8341;42.048;24.650;2023-01-23T00:34:12;97927.38;;;8.07;100.00
16461;BME280;8341;42.048;24.650;2023-01-23T00:36:41;97924.97;;;8.09;100.00
16461;BME280;8341;42.048;24.650;2023-01-23T00:39:13;97924.13;;;8.12;100.00
16461;BME280;8341;42.048;24.650;2023-01-23T00:41:41;97932.25;;;8.12;100.00
16461;BME280;8341;42.048;24.650;2023-01-23T00:44:08;97935.47;;;7.98;100.00
16461;BME280;8341;42.048;24.650;2023-01-23T00:46:35;97934.78;;;7.94;100.00
16461;BME280;8341;42.048;24.650;2023-01-23T00:49:02;97932.81;;;8.07;100.00
16461;BME280;8341;42.048;24.650;2023-01-23T00:51:29;97939.47;;;7.94;100.00
16461;BME280;8341;42.048;24.650;2023-01-23T00:53:56;97941.28;;;8.09;100.00
16461;BME280;8341;42.048;24.650;2023-01-23T00:56:23;97939.03;;;8.08;100.00
16461;BME280;8341;42.048;24.650;2023-01-23T00:58:51;97940.53;;;8.09;100.00
16461;BME280;8341;42.048;24.650;2023-01-23T01:01:18;97944.00;;;8.09;100.00
16461;BME280;8341;42.048;24.650;2023-01-23T01:03:47;97950.97;;;8.10;100.00
16461;BME280;8341;42.048;24.650;2023-01-23T01:06:15;97951.72;;;8.11;100.00
16461;BME280;8341;42.048;24.650;2023-01-23T01:08:42;97955.00;;;8.06;100.00
16461;BME280;8341;42.048;24.650;2023-01-23T01:11:09;97962.16;;;8.12;100.00
16461;BME280;8341;42.048;24.650;2023-01-23T01:13:36;97960.41;;;8.18;100.00
16461;BME280;8341;42.048;24.650;2023-01-23T01:16:05;97960.31;;;7.97;100.00
16461;BME280;8341;42.048;24.650;2023-01-23T01:18:33;97946.88;;;7.93;100.00
16461;BME280;8341;42.048;24.650;2023-01-23T01:20:59;97967.25;;;8.10;100.00
16461;BME280;8341;42.048;24.650;2023-01-23T01:23:26;97969.31;;;8.06;100.00
16461;BME280;8341;42.048;24.650;2023-01-23T01:25:57;97965.66;;;7.88;100.00
16461;BME280;8341;42.048;24.650;2023-01-23T01:28:25;97955.75;;;7.94;100.00
16461;BME280;8341;42.048;24.650;2023-01-23T01:30:54;97970.22;;;8.03;100.00
16461;BME280;8341;42.048;24.650;2023-01-23T01:33:23;97966.75;;;7.90;100.00
16461;BME280;8341;42.048;24.650;2023-01-23T01:35:50;97962.28;;;7.84;100.00
16461;BME280;8341;42.048;24.650;2023-01-23T01:38:17;97970.41;;;7.96;100.00
16461;BME280;8341;42.048;24.650;2023-01-23T01:40:43;97962.97;;;7.75;100.00
16461;BME280;8341;42.048;24.650;2023-01-23T01:43:18;97970.41;;;7.96;100.00
16461;BME280;8341;42.048;24.650;2023-01-23T01:46:12;97963.69;;;8.01;100.00
16461;BME280;8341;42.048;24.650;2023-01-23T01:48:44;97963.88;;;8.06;100.00
16461;BME280;8341;42.048;24.650;2023-01-23T01:51:17;97960.84;;;8.04;100.00
16461;BME280;8341;42.048;24.650;2023-01-23T01:53:47;97962.25;;;8.09;100.00
16461;BME280;8341;42.048;24.650;2023-01-23T01:56:16;97961.63;;;8.05;100.00
16461;BME280;8341;42.048;24.650;2023-01-23T01:58:46;97963.34;;;8.24;100.00
16461;BME280;8341;42.048;24.650;2023-01-23T02:01:14;97964.00;;;8.28;100.00
16461;BME280;8341;42.048;24.650;2023-01-23T02:03:44;97967.03;;;8.17;100.00
16461;BME280;8341;42.048;24.650;2023-01-23T02:06:11;97963.44;;;8.20;100.00
16461;BME280;8341;42.048;24.650;2023-01-23T02:08:42;97980.59;;;8.30;100.00
16461;BME280;8341;42.048;24.650;2023-01-23T02:11:10;97979.28;;;8.35;100.00
16461;BME280;8341;42.048;24.650;2023-01-23T02:13:39;97968.00;;;8.24;100.00
16461;BME280;8341;42.048;24.650;2023-01-23T02:16:09;97962.69;;;8.07;100.00
16461;BME280;8341;42.048;24.650;2023-01-23T02:18:38;97969.84;;;8.14;100.00
16461;BME280;8341;42.048;24.650;2023-01-23T02:21:11;97969.56;;;7.99;100.00
16461;BME280;8341;42.048;24.650;2023-01-23T02:23:54;97959.19;;;8.19;100.00
16461;BME280;8341;42.048;24.650;2023-01-23T02:26:27;97954.47;;;7.98;100.00
16461;BME280;8341;42.048;24.650;2023-01-23T02:28:57;97959.44;;;8.12;100.00
16461;BME280;8341;42.048;24.650;2023-01-23T02:31:24;97962.50;;;8.02;100.00
16461;BME280;8341;42.048;24.650;2023-01-23T02:33:53;97958.06;;;7.83;100.00
16461;BME280;8341;42.048;24.650;2023-01-23T02:36:23;97964.59;;;7.85;100.00
16461;BME280;8341;42.048;24.650;2023-01-23T02:38:54;97955.03;;;7.93;100.00
16461;BME280;8341;42.048;24.650;2023-01-23T02:41:28;97962.38;;;8.05;100.00
16461;BME280;8341;42.048;24.650;2023-01-23T02:43:57;97958.44;;;8.06;100.00
16461;BME280;8341;42.048;24.650;2023-01-23T02:46:25;97968.88;;;8.20;100.00
16461;BME280;8341;42.048;24.650;2023-01-23T02:48:52;97961.28;;;8.15;100.00
16461;BME280;8341;42.048;24.650;2023-01-23T02:51:19;97974.09;;;8.28;100.00
16461;BME280;8341;42.048;24.650;2023-01-23T02:53:47;97984.50;;;8.42;100.00
16461;BME280;8341;42.048;24.650;2023-01-23T02:56:14;97982.56;;;8.42;100.00
16461;BME280;8341;42.048;24.650;2023-01-23T02:58:43;97987.56;;;8.31;100.00
16461;BME280;8341;42.048;24.650;2023-01-23T03:01:27;97981.78;;;8.42;100.00
16461;BME280;8341;42.048;24.650;2023-01-23T03:03:54;97978.34;;;8.16;100.00
16461;BME280;8341;42.048;24.650;2023-01-23T03:06:29;97972.97;;;8.38;100.00
16461;BME280;8341;42.048;24.650;2023-01-23T03:09:05;97965.38;;;8.33;100.00
16461;BME280;8341;42.048;24.650;2023-01-23T03:11:34;97953.63;;;8.36;100.00
16461;BME280;8341;42.048;24.650;2023-01-23T03:14:03;97972.63;;;8.48;100.00
16461;BME280;8341;42.048;24.650;2023-01-23T03:16:30;97968.50;;;8.44;100.00
16461;BME280;8341;42.048;24.650;2023-01-23T03:18:59;97967.63;;;8.47;100.00
16461;BME280;8341;42.048;24.650;2023-01-23T03:21:30;97974.69;;;8.57;100.00
16461;BME280;8341;42.048;24.650;2023-01-23T03:23:57;97981.09;;;8.50;100.00
16461;BME280;8341;42.048;24.650;2023-01-23T03:26:24;97968.41;;;8.47;100.00
16461;BME280;8341;42.048;24.650;2023-01-23T03:28:51;97975.53;;;8.54;100.00
16461;BME280;8341;42.048;24.650;2023-01-23T03:31:36;97964.03;;;8.50;100.00
16461;BME280;8341;42.048;24.650;2023-01-23T03:34:03;97963.28;;;8.49;100.00
16461;BME280;8341;42.048;24.650;2023-01-23T03:36:30;97971.06;;;8.60;100.00
16461;BME280;8341;42.048;24.650;2023-01-23T03:38:57;97964.25;;;8.43;100.00
16461;BME280;8341;42.048;24.650;2023-01-23T03:41:41;97964.16;;;8.46;100.00
16461;BME280;8341;42.048;24.650;2023-01-23T03:44:10;97964.72;;;8.41;100.00
16461;BME280;8341;42.048;24.650;2023-01-23T03:46:38;97965.31;;;8.58;100.00
16461;BME280;8341;42.048;24.650;2023-01-23T03:49:05;97967.06;;;8.52;100.00
16461;BME280;8341;42.048;24.650;2023-01-23T03:51:32;97970.81;;;8.33;100.00
16461;BME280;8341;42.048;24.650;2023-01-23T03:53:59;97979.13;;;8.51;100.00
16461;BME280;8341;42.048;24.650;2023-01-23T03:56:25;97976.41;;;8.51;100.00
16461;BME280;8341;42.048;24.650;2023-01-23T03:58:52;97974.47;;;8.51;100.00
16461;BME280;8341;42.048;24.650;2023-01-23T04:01:19;97978.59;;;8.56;100.00
16461;BME280;8341;42.048;24.650;2023-01-23T04:03:48;97986.47;;;8.63;100.00
16461;BME280;8341;42.048;24.650;2023-01-23T04:06:15;97981.84;;;8.51;100.00
16461;BME280;8341;42.048;24.650;2023-01-23T04:08:42;97977.06;;;8.55;100.00
16461;BME280;8341;42.048;24.650;2023-01-23T04:11:09;97988.13;;;8.60;100.00
16461;BME280;8341;42.048;24.650;2023-01-23T04:13:37;97990.84;;;8.60;100.00
16461;BME280;8341;42.048;24.650;2023-01-23T04:16:05;98001.34;;;8.49;100.00
16461;BME280;8341;42.048;24.650;2023-01-23T04:18:32;98006.63;;;8.53;100.00
16461;BME280;8341;42.048;24.650;2023-01-23T04:21:01;98001.59;;;8.42;100.00
16461;BME280;8341;42.048;24.650;2023-01-23T04:23:28;98003.75;;;8.47;100.00
16461;BME280;8341;42.048;24.650;2023-01-23T04:25:55;98004.16;;;8.46;100.00
16461;BME280;8341;42.048;24.650;2023-01-23T04:28:22;98001.75;;;8.48;100.00
16461;BME280;8341;42.048;24.650;2023-01-23T04:30:49;98002.47;;;8.61;100.00
16461;BME280;8341;42.048;24.650;2023-01-23T04:33:16;97973.44;;;8.36;100.00
16461;BME280;8341;42.048;24.650;2023-01-23T04:35:48;98011.44;;;8.49;100.00
16461;BME280;8341;42.048;24.650;2023-01-23T04:38:17;98009.69;;;8.55;100.00
16461;BME280;8341;42.048;24.650;2023-01-23T04:40:45;98011.09;;;8.59;100.00
16461;BME280;8341;42.048;24.650;2023-01-23T04:43:12;98011.72;;;8.63;100.00
16461;BME280;8341;42.048;24.650;2023-01-23T04:45:39;98006.28;;;8.63;100.00
16461;BME280;8341;42.048;24.650;2023-01-23T04:48:05;98021.66;;;8.57;100.00
16461;BME280;8341;42.048;24.650;2023-01-23T04:50:32;98017.84;;;8.55;100.00
16461;BME280;8341;42.048;24.650;2023-01-23T04:52:59;98018.00;;;8.39;100.00
16461;BME280;8341;42.048;24.650;2023-01-23T04:55:27;98029.41;;;8.34;100.00
16461;BME280;8341;42.048;24.650;2023-01-23T04:57:54;98022.41;;;8.45;100.00
16461;BME280;8341;42.048;24.650;2023-01-23T05:00:21;98034.41;;;8.35;100.00
16461;BME280;8341;42.048;24.650;2023-01-23T05:02:49;98042.25;;;8.33;100.00
16461;BME280;8341;42.048;24.650;2023-01-23T05:05:16;98035.81;;;8.40;100.00
16461;BME280;8341;42.048;24.650;2023-01-23T05:07:45;98023.66;;;8.32;100.00
16461;BME280;8341;42.048;24.650;2023-01-23T05:10:13;98038.97;;;8.38;100.00
16461;BME280;8341;42.048;24.650;2023-01-23T05:12:41;98044.94;;;8.46;100.00
16461;BME280;8341;42.048;24.650;2023-01-23T05:15:09;98041.13;;;8.43;100.00
16461;BME280;8341;42.048;24.650;2023-01-23T05:17:36;98052.88;;;8.40;100.00
16461;BME280;8341;42.048;24.650;2023-01-23T05:20:04;98054.63;;;8.22;100.00
16461;BME280;8341;42.048;24.650;2023-01-23T05:22:31;98049.53;;;8.11;100.00
16461;BME280;8341;42.048;24.650;2023-01-23T05:24:58;98058.09;;;8.22;100.00
16461;BME280;8341;42.048;24.650;2023-01-23T05:27:25;98060.47;;;8.20;100.00
16461;BME280;8341;42.048;24.650;2023-01-23T05:29:53;98063.34;;;8.29;100.00
16461;BME280;8341;42.048;24.650;2023-01-23T05:32:20;98065.03;;;8.23;100.00
16461;BME280;8341;42.048;24.650;2023-01-23T05:34:46;98067.53;;;8.17;100.00
16461;BME280;8341;42.048;24.650;2023-01-23T05:37:13;98065.81;;;8.24;100.00
16461;BME280;8341;42.048;24.650;2023-01-23T05:39:40;98071.25;;;8.36;100.00
16461;BME280;8341;42.048;24.650;2023-01-23T05:42:07;98081.13;;;8.43;100.00
16461;BME280;8341;42.048;24.650;2023-01-23T05:44:34;98082.97;;;8.46;100.00
16461;BME280;8341;42.048;24.650;2023-01-23T05:47:02;98091.91;;;8.34;100.00
16461;BME280;8341;42.048;24.650;2023-01-23T05:49:29;98099.53;;;8.39;100.00
16461;BME280;8341;42.048;24.650;2023-01-23T05:51:55;98095.19;;;8.41;100.00
16461;BME280;8341;42.048;24.650;2023-01-23T05:54:22;98090.16;;;8.27;100.00
16461;BME280;8341;42.048;24.650;2023-01-23T05:56:49;98078.56;;;8.27;100.00
16461;BME280;8341;42.048;24.650;2023-01-23T05:59:16;98105.69;;;8.14;100.00
16461;BME280;8341;42.048;24.650;2023-01-23T06:01:43;98107.53;;;8.17;100.00
16461;BME280;8341;42.048;24.650;2023-01-23T06:04:11;98124.19;;;8.19;100.00
16461;BME280;8341;42.048;24.650;2023-01-23T06:06:40;98129.50;;;8.10;100.00
16461;BME280;8341;42.048;24.650;2023-01-23T06:09:07;98119.94;;;8.05;100.00
16461;BME280;8341;42.048;24.650;2023-01-23T06:11:34;98129.03;;;8.11;100.00
16461;BME280;8341;42.048;24.650;2023-01-23T06:14:01;98094.94;;;7.85;100.00
16461;BME280;8341;42.048;24.650;2023-01-23T06:16:28;98133.69;;;7.86;100.00
16461;BME280;8341;42.048;24.650;2023-01-23T06:18:55;98126.31;;;7.86;100.00
16461;BME280;8341;42.048;24.650;2023-01-23T06:21:23;98129.84;;;7.71;100.00
16461;BME280;8341;42.048;24.650;2023-01-23T06:23:50;98130.06;;;7.64;100.00
16461;BME280;8341;42.048;24.650;2023-01-23T06:26:17;98119.97;;;7.64;100.00
16461;BME280;8341;42.048;24.650;2023-01-23T06:28:44;98146.16;;;7.83;100.00
16461;BME280;8341;42.048;24.650;2023-01-23T06:31:11;98136.84;;;7.84;100.00
16461;BME280;8341;42.048;24.650;2023-01-23T06:33:38;98150.09;;;7.82;100.00
16461;BME280;8341;42.048;24.650;2023-01-23T06:36:05;98166.69;;;7.72;100.00
16461;BME280;8341;42.048;24.650;2023-01-23T06:38:33;98149.75;;;7.80;100.00
16461;BME280;8341;42.048;24.650;2023-01-23T06:41:01;98157.44;;;7.69;100.00
16461;BME280;8341;42.048;24.650;2023-01-23T06:43:27;98175.06;;;7.77;100.00
16461;BME280;8341;42.048;24.650;2023-01-23T06:45:54;98177.63;;;7.68;100.00
16461;BME280;8341;42.048;24.650;2023-01-23T06:48:21;98182.13;;;7.75;100.00
16461;BME280;8341;42.048;24.650;2023-01-23T06:50:48;98165.53;;;7.56;100.00
16461;BME280;8341;42.048;24.650;2023-01-23T06:53:16;98173.81;;;7.66;100.00
16461;BME280;8341;42.048;24.650;2023-01-23T06:55:45;98178.50;;;7.65;100.00
16461;BME280;8341;42.048;24.650;2023-01-23T06:58:11;98171.50;;;7.51;100.00
16461;BME280;8341;42.048;24.650;2023-01-23T07:00:38;98171.81;;;7.53;100.00
16461;BME280;8341;42.048;24.650;2023-01-23T07:03:09;98173.31;;;7.42;100.00
16461;BME280;8341;42.048;24.650;2023-01-23T07:05:36;98178.75;;;7.42;100.00
16461;BME280;8341;42.048;24.650;2023-01-23T07:08:05;98167.72;;;7.33;100.00
16461;BME280;8341;42.048;24.650;2023-01-23T07:10:33;98174.81;;;7.43;100.00
16461;BME280;8341;42.048;24.650;2023-01-23T07:13:03;98174.28;;;7.48;100.00
16461;BME280;8341;42.048;24.650;2023-01-23T07:15:30;98171.75;;;7.57;100.00
16461;BME280;8341;42.048;24.650;2023-01-23T07:17:57;98159.34;;;7.56;100.00
16461;BME280;8341;42.048;24.650;2023-01-23T07:20:27;98145.66;;;7.47;100.00
16461;BME280;8341;42.048;24.650;2023-01-23T07:22:54;98144.13;;;7.46;100.00
16461;BME280;8341;42.048;24.650;2023-01-23T07:25:23;98138.75;;;7.71;100.00
16461;BME280;8341;42.048;24.650;2023-01-23T07:27:50;98156.81;;;7.78;100.00
16461;BME280;8341;42.048;24.650;2023-01-23T07:30:18;98142.19;;;7.88;100.00
16461;BME280;8341;42.048;24.650;2023-01-23T07:32:45;98150.03;;;7.98;100.00
16461;BME280;8341;42.048;24.650;2023-01-23T07:35:12;98152.94;;;8.04;100.00
16461;BME280;8341;42.048;24.650;2023-01-23T07:37:39;98147.50;;;7.91;100.00
16461;BME280;8341;42.048;24.650;2023-01-23T07:40:07;98151.97;;;7.98;100.00
16461;BME280;8341;42.048;24.650;2023-01-23T07:42:34;98157.28;;;8.01;100.00
16461;BME280;8341;42.048;24.650;2023-01-23T07:45:00;98161.75;;;8.08;100.00
16461;BME280;8341;42.048;24.650;2023-01-23T07:47:29;98182.13;;;8.29;100.00
16461;BME280;8341;42.048;24.650;2023-01-23T07:49:56;98173.53;;;8.30;100.00
16461;BME280;8341;42.048;24.650;2023-01-23T07:52:22;98181.81;;;8.39;100.00
16461;BME280;8341;42.048;24.650;2023-01-23T07:54:49;98184.00;;;8.32;100.00
16461;BME280;8341;42.048;24.650;2023-01-23T07:57:16;98192.16;;;8.44;100.00
16461;BME280;8341;42.048;24.650;2023-01-23T07:59:43;98193.88;;;8.51;100.00
16461;BME280;8341;42.048;24.650;2023-01-23T08:02:10;98184.78;;;8.45;100.00
16461;BME280;8341;42.048;24.650;2023-01-23T08:04:38;98198.69;;;8.47;100.00
16461;BME280;8341;42.048;24.650;2023-01-23T08:07:05;98196.28;;;8.49;100.00
16461;BME280;8341;42.048;24.650;2023-01-23T08:09:32;98186.72;;;8.69;100.00
16461;BME280;8341;42.048;24.650;2023-01-23T08:11:59;98189.41;;;8.82;100.00
16461;BME280;8341;42.048;24.650;2023-01-23T08:14:26;98200.03;;;9.02;100.00
16461;BME280;8341;42.048;24.650;2023-01-23T08:16:52;98203.44;;;8.93;100.00
16461;BME280;8341;42.048;24.650;2023-01-23T08:19:19;98197.81;;;8.75;100.00
16461;BME280;8341;42.048;24.650;2023-01-23T08:21:48;98204.19;;;8.81;100.00
16461;BME280;8341;42.048;24.650;2023-01-23T08:24:14;98206.28;;;8.77;100.00
16461;BME280;8341;42.048;24.650;2023-01-23T08:26:42;98217.94;;;8.77;100.00
16461;BME280;8341;42.048;24.650;2023-01-23T08:29:08;98200.31;;;8.57;100.00
16461;BME280;8341;42.048;24.650;2023-01-23T08:31:36;98203.44;;;8.43;100.00
16461;BME280;8341;42.048;24.650;2023-01-23T08:34:03;98212.16;;;8.50;100.00
16461;BME280;8341;42.048;24.650;2023-01-23T08:36:30;98208.47;;;8.57;100.00
16461;BME280;8341;42.048;24.650;2023-01-23T08:38:58;98206.06;;;8.59;100.00
16461;BME280;8341;42.048;24.650;2023-01-23T08:41:25;98194.56;;;8.55;100.00
16461;BME280;8341;42.048;24.650;2023-01-23T08:43:51;98204.75;;;8.51;100.00
16461;BME280;8341;42.048;24.650;2023-01-23T08:46:18;98196.50;;;8.67;100.00
16461;BME280;8341;42.048;24.650;2023-01-23T08:48:45;98198.97;;;8.87;100.00
16461;BME280;8341;42.048;24.650;2023-01-23T08:51:13;98198.53;;;9.01;100.00
16461;BME280;8341;42.048;24.650;2023-01-23T08:53:40;98207.25;;;9.42;100.00
16461;BME280;8341;42.048;24.650;2023-01-23T08:56:13;98201.00;;;9.55;100.00
16461;BME280;8341;42.048;24.650;2023-01-23T08:58:40;98211.72;;;9.71;100.00
16461;BME280;8341;42.048;24.650;2023-01-23T09:01:10;98214.41;;;9.83;100.00
16461;BME280;8341;42.048;24.650;2023-01-23T09:03:37;98199.31;;;9.91;100.00
16461;BME280;8341;42.048;24.650;2023-01-23T09:06:04;98199.69;;;10.02;100.00
16461;BME280;8341;42.048;24.650;2023-01-23T09:08:31;98191.63;;;10.42;100.00
16461;BME280;8341;42.048;24.650;2023-01-23T09:10:59;98201.03;;;10.50;100.00
16461;BME280;8341;42.048;24.650;2023-01-23T09:13:28;98202.47;;;10.64;100.00
16461;BME280;8341;42.048;24.650;2023-01-23T09:15:55;98209.47;;;10.74;100.00
16461;BME280;8341;42.048;24.650;2023-01-23T09:18:21;98214.22;;;10.83;100.00
16461;BME280;8341;42.048;24.650;2023-01-23T09:20:49;98215.28;;;10.85;100.00
16461;BME280;8341;42.048;24.650;2023-01-23T09:23:16;98205.91;;;11.04;100.00
16461;BME280;8341;42.048;24.650;2023-01-23T09:25:43;98204.19;;;10.80;100.00
16461;BME280;8341;42.048;24.650;2023-01-23T09:28:10;98217.44;;;10.59;100.00
16461;BME280;8341;42.048;24.650;2023-01-23T09:30:39;98213.75;;;10.84;100.00
16461;BME280;8341;42.048;24.650;2023-01-23T09:33:06;98213.16;;;10.49;100.00
16461;BME280;8341;42.048;24.650;2023-01-23T09:35:33;98208.03;;;10.30;100.00
16461;BME280;8341;42.048;24.650;2023-01-23T09:38:02;98198.22;;;10.63;100.00
16461;BME280;8341;42.048;24.650;2023-01-23T09:40:34;98206.91;;;10.80;100.00
16461;BME280;8341;42.048;24.650;2023-01-23T09:43:08;98192.97;;;10.78;100.00
16461;BME280;8341;42.048;24.650;2023-01-23T09:45:40;98198.56;;;10.34;100.00
16461;BME280;8341;42.048;24.650;2023-01-23T09:48:17;98198.75;;;10.40;100.00
16461;BME280;8341;42.048;24.650;2023-01-23T09:50:53;98200.41;;;10.46;100.00
16461;BME280;8341;42.048;24.650;2023-01-23T09:53:24;98182.53;;;10.45;100.00
16461;BME280;8341;42.048;24.650;2023-01-23T09:55:56;98185.16;;;10.27;100.00
16461;BME280;8341;42.048;24.650;2023-01-23T09:58:29;98180.03;;;10.07;100.00
16461;BME280;8341;42.048;24.650;2023-01-23T10:01:01;98179.72;;;10.27;100.00
16461;BME280;8341;42.048;24.650;2023-01-23T10:03:29;98178.22;;;10.26;100.00
16461;BME280;8341;42.048;24.650;2023-01-23T10:06:10;98181.16;;;10.41;100.00
16461;BME280;8341;42.048;24.650;2023-01-23T10:08:52;98192.91;;;10.59;100.00
16461;BME280;8341;42.048;24.650;2023-01-23T10:11:30;98175.78;;;10.28;100.00
16461;BME280;8341;42.048;24.650;2023-01-23T10:14:09;98180.25;;;10.13;100.00
16461;BME280;8341;42.048;24.650;2023-01-23T10:16:59;98189.28;;;10.10;100.00
16461;BME280;8341;42.048;24.650;2023-01-23T10:22:31;98184.38;;;10.48;100.00
16461;BME280;8341;42.048;24.650;2023-01-23T10:25:06;98192.25;;;10.55;100.00
16461;BME280;8341;42.048;24.650;2023-01-23T10:27:37;98180.22;;;10.35;100.00
16461;BME280;8341;42.048;24.650;2023-01-23T10:30:18;98186.19;;;10.51;100.00
16461;BME280;8341;42.048;24.650;2023-01-23T10:33:13;98181.22;;;10.19;100.00
16461;BME280;8341;42.048;24.650;2023-01-23T10:35:45;98175.47;;;10.04;100.00
16461;BME280;8341;42.048;24.650;2023-01-23T10:38:24;98171.25;;;9.60;100.00
16461;BME280;8341;42.048;24.650;2023-01-23T10:40:53;98179.03;;;9.49;100.00
16461;BME280;8341;42.048;24.650;2023-01-23T10:43:37;98169.94;;;9.30;100.00
16461;BME280;8341;42.048;24.650;2023-01-23T10:46:09;98163.06;;;9.38;100.00
16461;BME280;8341;42.048;24.650;2023-01-23T10:48:44;98155.97;;;9.41;100.00
16461;BME280;8341;42.048;24.650;2023-01-23T10:51:33;98167.38;;;9.49;100.00
16461;BME280;8341;42.048;24.650;2023-01-23T10:54:05;98165.63;;;9.55;100.00
16461;BME280;8341;42.048;24.650;2023-01-23T10:56:35;98165.09;;;9.69;100.00
16461;BME280;8341;42.048;24.650;2023-01-23T10:59:04;98157.00;;;9.78;100.00
16461;BME280;8341;42.048;24.650;2023-01-23T11:01:32;98170.38;;;9.85;100.00
16461;BME280;8341;42.048;24.650;2023-01-23T11:04:10;98160.44;;;9.91;100.00
16461;BME280;8341;42.048;24.650;2023-01-23T11:06:44;98161.53;;;10.02;100.00
16461;BME280;8341;42.048;24.650;2023-01-23T11:09:25;98153.13;;;9.88;100.00
16461;BME280;8341;42.048;24.650;2023-01-23T11:12:02;98155.00;;;10.00;100.00
16461;BME280;8341;42.048;24.650;2023-01-23T11:14:29;98164.59;;;9.83;100.00
16461;BME280;8341;42.048;24.650;2023-01-23T11:17:01;98150.78;;;9.56;100.00
16461;BME280;8341;42.048;24.650;2023-01-23T11:19:31;98135.44;;;9.27;100.00
16461;BME280;8341;42.048;24.650;2023-01-23T11:22:00;98154.94;;;9.48;100.00
16461;BME280;8341;42.048;24.650;2023-01-23T11:24:33;98158.22;;;9.21;100.00
16461;BME280;8341;42.048;24.650;2023-01-23T11:27:02;98155.19;;;9.19;100.00
16461;BME280;8341;42.048;24.650;2023-01-23T11:29:44;98148.41;;;9.23;100.00
16461;BME280;8341;42.048;24.650;2023-01-23T11:32:14;98134.75;;;9.02;100.00
16461;BME280;8341;42.048;24.650;2023-01-23T11:34:47;98118.78;;;8.91;100.00
16461;BME280;8341;42.048;24.650;2023-01-23T11:37:19;98128.88;;;9.03;100.00
16461;BME280;8341;42.048;24.650;2023-01-23T11:39:49;98149.25;;;8.86;100.00
16461;BME280;8341;42.048;24.650;2023-01-23T11:42:18;98164.03;;;9.10;100.00
16461;BME280;8341;42.048;24.650;2023-01-23T11:44:46;98150.00;;;8.99;100.00
16461;BME280;8341;42.048;24.650;2023-01-23T11:47:45;98154.97;;;9.13;100.00
16461;BME280;8341;42.048;24.650;2023-01-23T11:50:34;98160.50;;;9.22;100.00
16461;BME280;8341;42.048;24.650;2023-01-23T11:53:07;98174.69;;;9.05;100.00
16461;BME280;8341;42.048;24.650;2023-01-23T11:55:55;98156.13;;;8.91;100.00
16461;BME280;8341;42.048;24.650;2023-01-23T12:01:21;98150.59;;;8.69;100.00
16461;BME280;8341;42.048;24.650;2023-01-23T12:04:06;98166.13;;;8.81;100.00
16461;BME280;8341;42.048;24.650;2023-01-23T12:06:47;98168.75;;;8.85;100.00
16461;BME280;8341;42.048;24.650;2023-01-23T12:09:17;98168.97;;;8.77;100.00
16461;BME280;8341;42.048;24.650;2023-01-23T12:11:56;98163.66;;;8.74;100.00
16461;BME280;8341;42.048;24.650;2023-01-23T12:14:30;98161.59;;;8.78;100.00
16461;BME280;8341;42.048;24.650;2023-01-23T12:17:17;98155.38;;;8.77;100.00
16461;BME280;8341;42.048;24.650;2023-01-23T12:22:55;98166.69;;;8.76;100.00
16461;BME280;8341;42.048;24.650;2023-01-23T12:25:31;98144.19;;;8.50;100.00
16461;BME280;8341;42.048;24.650;2023-01-23T12:28:04;98166.81;;;8.60;100.00
16461;BME280;8341;42.048;24.650;2023-01-23T12:30:58;98166.16;;;8.56;100.00
16461;BME280;8341;42.048;24.650;2023-01-23T12:33:44;98167.03;;;8.53;100.00
16461;BME280;8341;42.048;24.650;2023-01-23T12:36:23;98166.38;;;8.49;100.00
16461;BME280;8341;42.048;24.650;2023-01-23T12:39:02;98173.00;;;8.48;100.00
16461;BME280;8341;42.048;24.650;2023-01-23T12:41:37;98164.53;;;8.46;100.00
16461;BME280;8341;42.048;24.650;2023-01-23T12:44:11;98151.38;;;8.32;100.00
16461;BME280;8341;42.048;24.650;2023-01-23T12:46:44;98167.69;;;8.44;100.00
16461;BME280;8341;42.048;24.650;2023-01-23T12:49:23;98180.19;;;8.42;100.00
16461;BME280;8341;42.048;24.650;2023-01-23T12:51:57;98179.09;;;8.27;100.00
16461;BME280;8341;42.048;24.650;2023-01-23T12:54:33;98168.22;;;8.27;100.00
16461;BME280;8341;42.048;24.650;2023-01-23T12:57:03;98172.47;;;8.28;100.00
16461;BME280;8341;42.048;24.650;2023-01-23T12:59:40;98181.00;;;8.13;100.00
16461;BME280;8341;42.048;24.650;2023-01-23T13:02:18;98188.41;;;8.13;100.00
16461;BME280;8341;42.048;24.650;2023-01-23T13:04:56;98168.16;;;8.14;100.00
16461;BME280;8341;42.048;24.650;2023-01-23T13:07:35;98178.63;;;8.15;100.00
16461;BME280;8341;42.048;24.650;2023-01-23T13:10:24;98171.91;;;8.33;100.00
16461;BME280;8341;42.048;24.650;2023-01-23T13:12:53;98170.22;;;8.10;100.00
16461;BME280;8341;42.048;24.650;2023-01-23T13:15:29;98166.19;;;8.02;100.00
16461;BME280;8341;42.048;24.650;2023-01-23T13:18:00;98172.19;;;8.09;100.00
16461;BME280;8341;42.048;24.650;2023-01-23T13:20:29;98173.19;;;7.74;100.00
16461;BME280;8341;42.048;24.650;2023-01-23T13:23:28;98171.06;;;7.94;100.00
16461;BME280;8341;42.048;24.650;2023-01-23T13:28:51;98193.81;;;8.00;100.00